createdAt,value
2022-10-22T00:05:54.737Z,100.00
2022-10-22T00:20:56.467Z,100.00
2022-10-22T00:35:57.717Z,100.00
2022-10-22T00:50:58.962Z,100.00
2022-10-22T01:06:00.209Z,100.00
2022-10-22T01:21:01.503Z,100.00
2022-10-22T01:36:02.745Z,100.00
2022-10-22T01:51:04.000Z,100.00
2022-10-22T02:06:05.303Z,100.00
2022-10-22T02:36:12.795Z,100.00
2022-10-22T02:51:14.054Z,100.00
2022-10-22T03:06:15.711Z,100.00
2022-10-22T03:21:17.047Z,100.00
2022-10-22T03:36:18.330Z,100.00
2022-10-22T03:51:19.643Z,100.00
2022-10-22T04:06:21.020Z,100.00
2022-10-22T04:21:22.616Z,100.00
2022-10-22T04:36:23.891Z,100.00
2022-10-22T04:51:25.161Z,100.00
2022-10-22T05:06:26.439Z,100.00
2022-10-22T05:21:27.794Z,100.00
2022-10-22T05:36:29.067Z,100.00
2022-10-22T05:51:30.418Z,100.00
2022-10-22T06:06:31.888Z,100.00
2022-10-22T06:21:33.193Z,100.00
2022-10-22T06:36:34.883Z,100.00
2022-10-22T06:51:36.306Z,100.00
2022-10-22T07:06:37.822Z,100.00
2022-10-22T07:21:39.193Z,100.00
2022-10-22T07:36:40.503Z,100.00
2022-10-22T07:51:41.806Z,100.00
2022-10-22T08:06:45.836Z,100.00
2022-10-22T08:21:48.735Z,100.00
2022-10-22T08:36:50.060Z,100.00
2022-10-22T08:51:51.337Z,100.00
2022-10-22T09:06:53.683Z,100.00
2022-10-22T09:21:56.677Z,100.00
2022-10-22T09:36:58.317Z,100.00
2022-10-22T09:51:59.587Z,100.00
2022-10-22T10:07:00.903Z,100.00
2022-10-22T10:22:02.176Z,92.57
2022-10-22T10:37:03.447Z,85.59
2022-10-22T10:52:04.773Z,100.00
2022-10-22T11:07:16.744Z,95.14
2022-10-22T11:22:26.914Z,90.02
2022-10-22T11:37:30.591Z,100.00
2022-10-22T11:52:31.858Z,100.00
2022-10-22T12:07:33.163Z,83.48
2022-10-22T12:22:37.107Z,80.17
2022-10-22T12:37:38.730Z,70.46
2022-10-22T12:52:40.501Z,70.22
2022-10-22T13:07:42.027Z,77.94
2022-10-22T13:22:43.351Z,100.00
2022-10-22T13:37:44.696Z,100.00
2022-10-22T13:52:46.193Z,100.00
2022-10-22T14:07:47.553Z,100.00
2022-10-22T14:22:48.928Z,100.00
2022-10-22T14:37:50.238Z,100.00
2022-10-22T14:52:51.530Z,100.00
2022-10-22T15:18:59.796Z,100.00
2022-10-22T15:34:01.929Z,100.00
2022-10-22T15:49:03.527Z,100.00
2022-10-22T16:04:04.838Z,100.00
2022-10-22T16:19:06.587Z,100.00
2022-10-22T16:34:08.008Z,100.00
2022-10-22T16:49:09.386Z,100.00
2022-10-22T17:04:10.715Z,100.00
2022-10-22T17:19:12.015Z,100.00
2022-10-22T17:34:13.311Z,100.00
2022-10-22T17:49:14.644Z,100.00
2022-10-22T18:04:16.005Z,100.00
2022-10-22T18:43:27.807Z,100.00
2022-10-22T19:06:00.151Z,100.00
2022-10-22T19:29:29.027Z,100.00
2022-10-22T19:44:30.461Z,100.00
2022-10-22T19:59:32.289Z,100.00
2022-10-22T20:14:33.692Z,100.00
2022-10-22T20:29:35.033Z,100.00
2022-10-22T20:44:36.322Z,100.00
2022-10-22T20:59:37.677Z,100.00
2022-10-22T21:14:38.939Z,100.00
2022-10-22T21:29:40.231Z,100.00
2022-10-22T21:44:41.511Z,100.00
2022-10-22T21:59:43.182Z,100.00
2022-10-22T22:14:45.347Z,100.00
2022-10-22T22:29:46.683Z,100.00
2022-10-22T22:44:48.616Z,100.00
2022-10-22T22:59:50.902Z,100.00
2022-10-22T23:14:52.168Z,100.00
2022-10-22T23:29:54.226Z,100.00
2022-10-22T23:44:55.730Z,100.00
2022-10-22T23:59:57.071Z,100.00
